FRS111N EDDG-EDDV
Flight info
| Callsign | FRS111N |
|---|---|
| Flight time | N/A |
| Altitude | |
| Route | |
| Aircraft | C400 |
Departure
| Time | 2026-04-21 21:30 |
|---|---|
| Airport | Münster Osnabrück Airport (EDDG) |
Arrival
| Time | N/A |
|---|---|
| Airport | Hannover Airport (EDDV) |
| Time | Latitude | Longitude | Altitude | Speed | Heading |
|---|---|---|---|---|---|
| 2026-04-21 21:24 | 52.13151 | 7.68722 | 163 ft | 0 kts | 341° |
| 2026-04-21 21:25 | 52.13160 | 7.68717 | 163 ft | 7 kts | 343° |
| 2026-04-21 21:26 | 52.13223 | 7.68681 | 163 ft | 10 kts | 340° |
| 2026-04-21 21:26 | 52.13269 | 7.68739 | 162 ft | 13 kts | 72° |
| 2026-04-21 21:26 | 52.13316 | 7.68864 | 160 ft | 12 kts | 353° |
| 2026-04-21 21:26 | 52.13388 | 7.68945 | 161 ft | 17 kts | 71° |
| 2026-04-21 21:27 | 52.13430 | 7.69143 | 159 ft | 19 kts | 69° |
| 2026-04-21 21:27 | 52.13470 | 7.69337 | 162 ft | 17 kts | 70° |
| 2026-04-21 21:27 | 52.13516 | 7.69553 | 162 ft | 21 kts | 71° |
| 2026-04-21 21:27 | 52.13563 | 7.69775 | 161 ft | 21 kts | 70° |
| 2026-04-21 21:28 | 52.13614 | 7.69985 | 161 ft | 19 kts | 48° |
| 2026-04-21 21:28 | 52.13744 | 7.70006 | 159 ft | 22 kts | 329° |
| 2026-04-21 21:28 | 52.13766 | 7.69915 | 162 ft | 0 kts | 252° |
| 2026-04-21 21:29 | 52.13701 | 7.69573 | 165 ft | 66 kts | 251° |
| 2026-04-21 21:30 | 52.13488 | 7.68606 | 226 ft | 107 kts | 250° |
| 2026-04-21 21:30 | 52.13225 | 7.67400 | 469 ft | 117 kts | 251° |
| 2026-04-21 21:30 | 52.12838 | 7.66040 | 622 ft | 147 kts | 238° |
| 2026-04-21 21:30 | 52.11982 | 7.65627 | 1005 ft | 143 kts | 144° |
| 2026-04-21 21:31 | 52.11645 | 7.67067 | 1177 ft | 149 kts | 73° |
| 2026-04-21 21:31 | 52.12098 | 7.68600 | 1381 ft | 152 kts | 63° |
| 2026-04-21 21:31 | 52.12499 | 7.70244 | 1433 ft | 159 kts | 80° |
| 2026-04-21 21:31 | 52.12306 | 7.71976 | 1587 ft | 163 kts | 112° |
| 2026-04-21 21:32 | 52.11809 | 7.73698 | 1530 ft | 170 kts | 109° |
| 2026-04-21 21:32 | 52.11546 | 7.75550 | 1647 ft | 166 kts | 93° |
| 2026-04-21 21:32 | 52.11601 | 7.77387 | 1899 ft | 159 kts | 83° |
| 2026-04-21 21:32 | 52.11546 | 7.79169 | 2120 ft | 162 kts | 99° |
| 2026-04-21 21:33 | 52.11330 | 7.80964 | 2159 ft | 168 kts | 101° |
| 2026-04-21 21:33 | 52.11074 | 7.82911 | 1997 ft | 178 kts | 100° |
| 2026-04-21 21:33 | 52.10829 | 7.84832 | 1960 ft | 177 kts | 98° |
| 2026-04-21 21:33 | 52.10673 | 7.86848 | 1901 ft | 175 kts | 93° |
| 2026-04-21 21:34 | 52.10989 | 7.88612 | 2248 ft | 165 kts | 66° |
| 2026-04-21 21:34 | 52.11523 | 7.90332 | 2162 ft | 172 kts | 63° |
| 2026-04-21 21:34 | 52.12088 | 7.92026 | 2243 ft | 169 kts | 66° |
| 2026-04-21 21:34 | 52.12613 | 7.93727 | 2315 ft | 168 kts | 63° |
| 2026-04-21 21:35 | 52.13134 | 7.95430 | 2322 ft | 168 kts | 73° |
| 2026-04-21 21:35 | 52.13644 | 7.97135 | 2320 ft | 169 kts | 59° |
| 2026-04-21 21:35 | 52.14220 | 7.98797 | 2323 ft | 170 kts | 65° |
| 2026-04-21 21:35 | 52.14781 | 8.00499 | 2321 ft | 171 kts | 63° |
| 2026-04-21 21:36 | 52.15348 | 8.02206 | 2326 ft | 172 kts | 65° |
| 2026-04-21 21:36 | 52.15921 | 8.03916 | 2327 ft | 173 kts | 62° |
| 2026-04-21 21:36 | 52.16507 | 8.05642 | 2313 ft | 176 kts | 64° |
| 2026-04-21 21:36 | 52.17091 | 8.07376 | 2319 ft | 173 kts | 62° |
| 2026-04-21 21:37 | 52.17668 | 8.09094 | 2322 ft | 173 kts | 63° |
| 2026-04-21 21:37 | 52.18243 | 8.10812 | 2321 ft | 173 kts | 63° |
| 2026-04-21 21:37 | 52.18823 | 8.12535 | 2318 ft | 173 kts | 63° |
| 2026-04-21 21:37 | 52.19379 | 8.14174 | 2824 ft | 154 kts | 63° |
| 2026-04-21 21:38 | 52.19868 | 8.15590 | 3508 ft | 131 kts | 64° |
| 2026-04-21 21:38 | 52.20287 | 8.16791 | 4194 ft | 118 kts | 61° |
| 2026-04-21 21:38 | 52.20700 | 8.17971 | 4714 ft | 122 kts | 63° |
| 2026-04-21 21:38 | 52.21107 | 8.19194 | 5203 ft | 123 kts | 63° |
| 2026-04-21 21:39 | 52.21506 | 8.20437 | 5700 ft | 123 kts | 61° |
| 2026-04-21 21:39 | 52.21918 | 8.21657 | 6222 ft | 122 kts | 64° |
| 2026-04-21 21:39 | 52.22280 | 8.22906 | 6755 ft | 122 kts | 68° |
| 2026-04-21 21:39 | 52.22588 | 8.24193 | 7277 ft | 123 kts | 68° |
| 2026-04-21 21:40 | 52.22900 | 8.25494 | 7746 ft | 123 kts | 68° |
| 2026-04-21 21:40 | 52.23215 | 8.26804 | 8230 ft | 125 kts | 69° |
| 2026-04-21 21:40 | 52.23531 | 8.28121 | 8719 ft | 125 kts | 68° |
| 2026-04-21 21:40 | 52.23850 | 8.29440 | 9208 ft | 126 kts | 68° |
| 2026-04-21 21:41 | 52.24069 | 8.30337 | 9391 ft | 136 kts | 68° |
| 2026-04-21 21:41 | 52.24449 | 8.31897 | 9404 ft | 158 kts | 68° |
| 2026-04-21 21:41 | 52.24870 | 8.33647 | 9399 ft | 172 kts | 68° |
| 2026-04-21 21:41 | 52.25467 | 8.36121 | 9406 ft | 181 kts | 68° |
| 2026-04-21 21:42 | 52.25938 | 8.38051 | 9398 ft | 184 kts | 69° |
| 2026-04-21 21:42 | 52.26408 | 8.40005 | 9394 ft | 186 kts | 69° |
| 2026-04-21 21:42 | 52.26729 | 8.41333 | 9406 ft | 186 kts | 68° |
| 2026-04-21 21:42 | 52.27363 | 8.43944 | 9411 ft | 187 kts | 69° |
| 2026-04-21 21:43 | 52.27686 | 8.45276 | 9413 ft | 187 kts | 69° |
| 2026-04-21 21:43 | 52.28167 | 8.47255 | 9406 ft | 188 kts | 69° |
| 2026-04-21 21:43 | 52.28582 | 8.49283 | 9402 ft | 188 kts | 73° |
| 2026-04-21 21:43 | 52.28926 | 8.51336 | 9410 ft | 187 kts | 74° |
| 2026-04-21 21:44 | 52.29189 | 8.53418 | 9400 ft | 188 kts | 83° |
| 2026-04-21 21:44 | 52.29269 | 8.55545 | 9405 ft | 188 kts | 85° |
| 2026-04-21 21:44 | 52.29336 | 8.57674 | 9405 ft | 188 kts | 85° |
| 2026-04-21 21:44 | 52.29398 | 8.59805 | 9408 ft | 188 kts | 85° |
| 2026-04-21 21:45 | 52.29460 | 8.61904 | 9406 ft | 188 kts | 85° |
| 2026-04-21 21:45 | 52.29523 | 8.64030 | 9405 ft | 187 kts | 85° |
| 2026-04-21 21:45 | 52.29586 | 8.66156 | 9404 ft | 187 kts | 85° |
| 2026-04-21 21:45 | 52.29651 | 8.68281 | 9404 ft | 187 kts | 85° |
| 2026-04-21 21:46 | 52.29713 | 8.70419 | 9408 ft | 189 kts | 85° |
| 2026-04-21 21:46 | 52.29779 | 8.72574 | 9409 ft | 190 kts | 85° |
| 2026-04-21 21:46 | 52.29844 | 8.74742 | 9412 ft | 191 kts | 85° |
| 2026-04-21 21:46 | 52.29909 | 8.76909 | 9413 ft | 191 kts | 85° |
| 2026-04-21 21:47 | 52.29974 | 8.79074 | 9418 ft | 191 kts | 85° |
| 2026-04-21 21:47 | 52.30037 | 8.81231 | 9415 ft | 185 kts | 85° |
| 2026-04-21 21:47 | 52.30090 | 8.83193 | 9403 ft | 162 kts | 85° |
| 2026-04-21 21:47 | 52.30133 | 8.84944 | 9402 ft | 144 kts | 85° |
| 2026-04-21 21:48 | 52.30165 | 8.86461 | 9227 ft | 132 kts | 85° |
| 2026-04-21 21:48 | 52.30201 | 8.88087 | 8435 ft | 157 kts | 86° |
| 2026-04-21 21:48 | 52.30254 | 8.90124 | 7871 ft | 194 kts | 85° |
| 2026-04-21 21:48 | 52.30322 | 8.92433 | 7252 ft | 210 kts | 85° |
| 2026-04-21 21:49 | 52.30392 | 8.94813 | 6874 ft | 208 kts | 85° |
| 2026-04-21 21:49 | 52.30462 | 8.97168 | 6474 ft | 207 kts | 86° |
| 2026-04-21 21:49 | 52.30532 | 8.99522 | 6059 ft | 208 kts | 85° |
| 2026-04-21 21:49 | 52.30649 | 9.01873 | 5624 ft | 208 kts | 84° |
| 2026-04-21 21:50 | 52.30783 | 9.04227 | 5202 ft | 208 kts | 84° |
| 2026-04-21 21:50 | 52.30923 | 9.06586 | 4770 ft | 208 kts | 84° |
| 2026-04-21 21:50 | 52.31063 | 9.08936 | 4425 ft | 207 kts | 84° |
| 2026-04-21 21:50 | 52.31209 | 9.11267 | 4013 ft | 205 kts | 83° |
| 2026-04-21 21:51 | 52.31349 | 9.13587 | 3597 ft | 204 kts | 84° |
| 2026-04-21 21:51 | 52.31491 | 9.15886 | 3218 ft | 203 kts | 84° |
| 2026-04-21 21:51 | 52.31635 | 9.18162 | 2855 ft | 200 kts | 84° |
| 2026-04-21 21:51 | 52.31771 | 9.20396 | 2588 ft | 195 kts | 83° |
| 2026-04-21 21:52 | 52.31919 | 9.22520 | 2579 ft | 183 kts | 84° |
| 2026-04-21 21:52 | 52.32051 | 9.24572 | 2587 ft | 182 kts | 83° |
| 2026-04-21 21:52 | 52.32189 | 9.26620 | 2588 ft | 181 kts | 83° |
| 2026-04-21 21:52 | 52.32329 | 9.28647 | 2581 ft | 177 kts | 83° |
| 2026-04-21 21:53 | 52.32457 | 9.30645 | 2586 ft | 177 kts | 84° |
| 2026-04-21 21:53 | 52.32588 | 9.32639 | 2454 ft | 182 kts | 83° |
| 2026-04-21 21:53 | 52.32718 | 9.34695 | 2339 ft | 182 kts | 84° |
| 2026-04-21 21:53 | 52.32854 | 9.36754 | 2276 ft | 180 kts | 83° |
| 2026-04-21 21:54 | 52.32980 | 9.38772 | 2289 ft | 180 kts | 84° |
| 2026-04-21 21:54 | 52.33105 | 9.40807 | 2279 ft | 178 kts | 84° |
| 2026-04-21 21:54 | 52.33265 | 9.42784 | 2284 ft | 165 kts | 77° |
| 2026-04-21 21:54 | 52.34113 | 9.43718 | 2172 ft | 156 kts | 17° |
| 2026-04-21 21:55 | 52.35097 | 9.44150 | 2228 ft | 145 kts | 26° |
| 2026-04-21 21:55 | 52.36096 | 9.44826 | 1836 ft | 160 kts | 27° |
| 2026-04-21 21:55 | 52.37015 | 9.45479 | 2213 ft | 130 kts | 27° |
| 2026-04-21 21:55 | 52.37906 | 9.45926 | 2146 ft | 147 kts | 25° |
| 2026-04-21 21:56 | 52.38886 | 9.46680 | 2104 ft | 165 kts | 34° |
| 2026-04-21 21:56 | 52.39834 | 9.47826 | 2003 ft | 175 kts | 45° |
| 2026-04-21 21:56 | 52.40635 | 9.49414 | 1663 ft | 186 kts | 58° |
| 2026-04-21 21:56 | 52.41293 | 9.51026 | 1418 ft | 156 kts | 58° |
| 2026-04-21 21:57 | 52.41789 | 9.52335 | 1513 ft | 133 kts | 60° |
| 2026-04-21 21:57 | 52.42303 | 9.53747 | 1555 ft | 152 kts | 62° |
| 2026-04-21 21:57 | 52.42854 | 9.55268 | 1579 ft | 158 kts | 59° |
| 2026-04-21 21:57 | 52.43460 | 9.56653 | 1616 ft | 138 kts | 50° |
| 2026-04-21 21:58 | 52.44175 | 9.57601 | 1424 ft | 129 kts | 39° |
| 2026-04-21 21:58 | 52.44909 | 9.58352 | 1243 ft | 120 kts | 35° |
| 2026-04-21 21:58 | 52.45537 | 9.59101 | 1160 ft | 104 kts | 51° |
| 2026-04-21 21:58 | 52.45783 | 9.60179 | 1013 ft | 120 kts | 83° |
| 2026-04-21 21:59 | 52.45780 | 9.61672 | 901 ft | 129 kts | 92° |
| 2026-04-21 21:59 | 52.45706 | 9.63051 | 807 ft | 115 kts | 94° |
| 2026-04-21 21:59 | 52.45637 | 9.64290 | 735 ft | 105 kts | 94° |
| 2026-04-21 21:59 | 52.45569 | 9.65463 | 596 ft | 102 kts | 92° |
| 2026-04-21 22:00 | 52.45524 | 9.66611 | 428 ft | 97 kts | 88° |
| 2026-04-21 22:00 | 52.45512 | 9.67561 | 253 ft | 76 kts | 91° |
| 2026-04-21 22:00 | 52.45487 | 9.68316 | 173 ft | 55 kts | 90° |
| 2026-04-21 22:00 | 52.45465 | 9.69024 | 214 ft | 79 kts | 92° |
| 2026-04-21 22:01 | 52.45433 | 9.69854 | 575 ft | 79 kts | 86° |
| 2026-04-21 22:01 | 52.45421 | 9.70894 | 736 ft | 103 kts | 90° |
| 2026-04-21 22:01 | 52.45312 | 9.72139 | 1156 ft | 110 kts | 112° |
| 2026-04-21 22:01 | 52.44647 | 9.72907 | 1446 ft | 141 kts | 154° |
| 2026-04-21 22:02 | 52.43614 | 9.73329 | 1453 ft | 166 kts | 167° |
| 2026-04-21 22:02 | 52.42576 | 9.72545 | 1604 ft | 185 kts | 231° |
| 2026-04-21 22:02 | 52.42120 | 9.70608 | 1730 ft | 188 kts | 259° |
| 2026-04-21 22:02 | 52.41931 | 9.68362 | 1534 ft | 204 kts | 264° |
| 2026-04-21 22:03 | 52.41814 | 9.66039 | 1530 ft | 203 kts | 267° |
| 2026-04-21 22:03 | 52.41757 | 9.63750 | 1622 ft | 193 kts | 273° |
| 2026-04-21 22:03 | 52.42056 | 9.61881 | 1767 ft | 152 kts | 305° |
| 2026-04-21 22:03 | 52.42781 | 9.60828 | 1664 ft | 129 kts | 345° |
| 2026-04-21 22:04 | 52.43654 | 9.60709 | 1304 ft | 130 kts | 4° |
| 2026-04-21 22:04 | 52.44515 | 9.60554 | 1202 ft | 124 kts | 1° |
| 2026-04-21 22:04 | 52.45308 | 9.60642 | 1177 ft | 104 kts | 36° |
| 2026-04-21 22:04 | 52.45624 | 9.61664 | 876 ft | 125 kts | 84° |
| 2026-04-21 22:05 | 52.45636 | 9.63175 | 650 ft | 134 kts | 89° |
| 2026-04-21 22:05 | 52.45596 | 9.64649 | 484 ft | 126 kts | 90° |
| 2026-04-21 22:05 | 52.45545 | 9.65980 | 469 ft | 108 kts | 89° |
| 2026-04-21 22:05 | 52.45519 | 9.67136 | 292 ft | 96 kts | 89° |
| 2026-04-21 22:06 | 52.45491 | 9.68083 | 182 ft | 69 kts | 89° |
| 2026-04-21 22:06 | 52.45473 | 9.68788 | 175 ft | 73 kts | 94° |
| 2026-04-21 22:06 | 52.45437 | 9.69753 | 419 ft | 89 kts | 92° |
| 2026-04-21 22:06 | 52.45387 | 9.70734 | 842 ft | 83 kts | 91° |
| 2026-04-21 22:07 | 52.45303 | 9.71662 | 1196 ft | 90 kts | 114° |
| 2026-04-21 22:07 | 52.44611 | 9.72235 | 1147 ft | 143 kts | 169° |
| 2026-04-21 22:07 | 52.43580 | 9.71688 | 1276 ft | 171 kts | 211° |
| 2026-04-21 22:07 | 52.42614 | 9.70356 | 1238 ft | 188 kts | 220° |
| 2026-04-21 22:08 | 52.42009 | 9.68535 | 1432 ft | 187 kts | 259° |
| 2026-04-21 22:08 | 52.41838 | 9.66383 | 1528 ft | 192 kts | 264° |
| 2026-04-21 22:08 | 52.41648 | 9.64171 | 1554 ft | 197 kts | 260° |
| 2026-04-21 22:08 | 52.41410 | 9.62038 | 1813 ft | 192 kts | 259° |
| 2026-04-21 22:09 | 52.41118 | 9.59827 | 1883 ft | 196 kts | 256° |